Time;durP1;ratioP1;P1;durP2;ratioP2;P2;SDS_P1;SDS_P2;PMS_P1;PMS_P2;Temp;Humidity;BMP_temperature;BMP_pressure;BME280_temperature;BME280_humidity;BME280_pressure;Samples;Min_cycle;Max_cycle;Signal;HPM_P1;HPM_P2
2023/01/10 00:01:46;;;;;;;8.60;2.88;;;13.40;94.10;;;;;;5074154;28;20099;-62
2023/01/10 00:04:12;;;;;;;9.13;2.25;;;13.60;94.40;;;;;;5074642;28;20694;-62
2023/01/10 00:06:37;;;;;;;11.15;2.83;;;13.50;94.30;;;;;;5074583;28;20028;-63
2023/01/10 00:09:03;;;;;;;8.88;2.72;;;13.60;94.20;;;;;;5074492;28;20028;-63
2023/01/10 00:14:13;;;;;;;8.90;2.50;;;13.60;94.50;;;;;;5074395;28;20089;-61
2023/01/10 00:16:41;;;;;;;13.38;2.63;;;13.60;94.60;;;;;;5074041;28;20020;-61
2023/01/10 00:19:09;;;;;;;10.85;3.25;;;13.50;94.20;;;;;;5074475;28;20048;-63
2023/01/10 00:21:35;;;;;;;13.07;2.97;;;13.30;93.80;;;;;;5074275;28;20009;-61
2023/01/10 00:24:19;;;;;;;10.00;3.35;;;13.30;93.60;;;;;;5074153;28;20033;-62
2023/01/10 00:26:49;;;;;;;10.35;2.45;;;13.20;93.90;;;;;;5074046;28;20405;-63
2023/01/10 00:29:19;;;;;;;7.65;3.20;;;13.30;93.60;;;;;;5074258;28;20035;-67
2023/01/10 00:31:44;;;;;;;7.65;2.50;;;13.50;94.10;;;;;;5073621;28;20032;-66
2023/01/10 00:34:10;;;;;;;10.48;2.33;;;13.60;94.20;;;;;;5074037;28;20390;-62
2023/01/10 00:36:36;;;;;;;7.95;2.30;;;13.50;93.70;;;;;;5074020;28;20040;-61
2023/01/10 00:39:02;;;;;;;6.88;2.35;;;13.60;94.20;;;;;;5073945;28;20024;-62
2023/01/10 00:44:12;;;;;;;7.28;2.10;;;13.50;94.20;;;;;;5073906;28;20409;-62
2023/01/10 00:46:37;;;;;;;7.97;2.20;;;13.60;94.50;;;;;;5073798;28;20024;-63
2023/01/10 00:49:07;;;;;;;10.52;2.28;;;13.70;94.70;;;;;;5073510;28;20024;-62
2023/01/10 00:51:32;;;;;;;9.80;2.40;;;13.60;94.20;;;;;;5073541;28;20054;-62
2023/01/10 00:53:58;;;;;;;11.18;2.55;;;13.60;94.20;;;;;;5073702;28;20103;-62
2023/01/10 00:56:23;;;;;;;9.15;2.75;;;13.50;94.00;;;;;;5073597;28;20417;-63
2023/01/10 00:58:49;;;;;;;11.85;2.42;;;13.60;94.30;;;;;;5073328;28;20024;-63
2023/01/10 01:01:15;;;;;;;10.75;2.75;;;13.50;93.90;;;;;;5071609;28;20032;-62
2023/01/10 01:03:40;;;;;;;10.32;2.53;;;13.50;93.90;;;;;;5072904;28;20041;-65
2023/01/10 01:06:06;;;;;;;10.30;2.20;;;13.60;94.20;;;;;;5073438;28;20024;-63
2023/01/10 01:08:32;;;;;;;8.63;2.33;;;13.60;94.00;;;;;;5073404;28;20108;-63
2023/01/10 01:10:58;;;;;;;12.23;2.63;;;13.40;93.50;;;;;;5073105;28;20071;-63
2023/01/10 01:13:24;;;;;;;15.85;3.03;;;13.20;93.40;;;;;;5073154;28;20557;-63
2023/01/10 01:15:50;;;;;;;9.85;2.67;;;13.40;93.50;;;;;;5071693;28;20028;-62
2023/01/10 01:18:19;;;;;;;8.50;2.67;;;13.30;93.40;;;;;;5073313;28;20024;-62
2023/01/10 01:20:45;;;;;;;7.13;2.60;;;13.40;93.60;;;;;;5073062;28;20024;-63
2023/01/10 01:23:11;;;;;;;11.77;2.75;;;13.40;93.50;;;;;;5073072;28;20048;-61
2023/01/10 01:25:37;;;;;;;14.32;2.70;;;13.20;93.40;;;;;;5073005;28;20027;-62
2023/01/10 01:28:03;;;;;;;10.80;3.25;;;13.10;93.20;;;;;;5072893;28;20024;-61
2023/01/10 01:30:28;;;;;;;8.32;2.38;;;13.30;93.50;;;;;;5072773;28;20028;-62
2023/01/10 01:32:54;;;;;;;9.02;2.25;;;13.30;93.90;;;;;;5072936;28;20024;-63
2023/01/10 01:35:19;;;;;;;8.52;2.83;;;13.20;93.70;;;;;;5072947;28;20025;-63
2023/01/10 01:37:45;;;;;;;12.23;3.28;;;13.10;93.20;;;;;;5072746;28;20058;-62
2023/01/10 01:40:19;;;;;;;11.23;2.90;;;13.00;93.00;;;;;;5073074;28;20035;-63
2023/01/10 01:42:45;;;;;;;11.88;2.58;;;13.10;93.30;;;;;;5072400;28;20025;-61
2023/01/10 01:45:14;;;;;;;10.95;2.50;;;13.10;93.50;;;;;;5071692;28;20029;-61
2023/01/10 01:47:47;;;;;;;10.20;2.38;;;13.30;93.80;;;;;;5072794;28;20016;-62
2023/01/10 01:50:21;;;;;;;8.95;2.50;;;13.30;93.90;;;;;;5072704;28;20078;-61
2023/01/10 01:52:50;;;;;;;12.65;2.92;;;13.30;93.90;;;;;;5072727;28;20120;-62
2023/01/10 01:55:15;;;;;;;10.27;2.83;;;13.40;94.20;;;;;;5072627;28;20100;-61
2023/01/10 01:57:44;;;;;;;9.07;2.83;;;13.30;94.00;;;;;;5065570;28;20131;-62
2023/01/10 02:00:10;;;;;;;9.63;2.53;;;13.40;94.20;;;;;;5060202;28;20074;-62
2023/01/10 02:02:45;;;;;;;10.45;2.30;;;13.10;93.50;;;;;;5051375;28;20029;-62
2023/01/10 02:05:13;;;;;;;11.50;2.75;;;13.20;93.80;;;;;;5050317;28;20534;-62
2023/01/10 02:07:44;;;;;;;11.32;2.85;;;13.10;93.70;;;;;;5051980;28;20021;-62
2023/01/10 02:10:25;;;;;;;13.27;3.03;;;13.20;94.00;;;;;;5052216;28;20013;-61
2023/01/10 02:12:53;;;;;;;14.77;3.63;;;13.20;93.70;;;;;;5052080;28;20490;-62
2023/01/10 02:15:19;;;;;;;11.32;2.85;;;13.00;93.20;;;;;;5052430;28;20106;-62
2023/01/10 02:17:50;;;;;;;11.45;2.65;;;13.00;93.30;;;;;;5056291;28;20060;-62
2023/01/10 02:20:18;;;;;;;13.52;3.45;;;13.00;93.40;;;;;;5056882;28;20032;-62
2023/01/10 02:23:17;;;;;;;16.63;3.88;;;13.00;93.50;;;;;;5056473;28;20095;-62
2023/01/10 02:25:57;;;;;;;12.85;3.10;;;13.00;93.50;;;;;;5056406;28;20043;-64
2023/01/10 02:28:53;;;;;;;11.23;2.97;;;12.90;93.40;;;;;;5055888;28;20047;-62
2023/01/10 02:31:29;;;;;;;15.43;3.28;;;12.80;93.00;;;;;;5056267;28;20040;-62
2023/01/10 02:34:23;;;;;;;16.45;3.67;;;12.80;93.20;;;;;;5055998;28;20433;-61
2023/01/10 02:36:57;;;;;;;13.35;2.63;;;12.90;93.30;;;;;;5055044;28;20474;-61
2023/01/10 02:39:28;;;;;;;12.52;3.40;;;12.80;93.00;;;;;;5056129;28;20040;-62
2023/01/10 02:42:17;;;;;;;14.80;3.33;;;12.70;92.80;;;;;;5055909;28;20100;-62
2023/01/10 02:45:28;;;;;;;14.00;3.30;;;12.90;93.30;;;;;;5055687;28;20037;-61
2023/01/10 02:47:55;;;;;;;13.88;3.08;;;12.40;92.60;;;;;;5053658;28;20402;-62
2023/01/10 02:50:41;;;;;;;13.05;3.35;;;12.50;93.00;;;;;;5056039;28;20401;-63
2023/01/10 02:53:19;;;;;;;15.32;3.55;;;12.50;92.90;;;;;;5056133;28;20493;-62
2023/01/10 02:55:58;;;;;;;16.27;3.13;;;12.30;93.10;;;;;;5055550;28;20017;-62
2023/01/10 02:59:02;;;;;;;14.90;3.70;;;12.10;92.70;;;;;;5055499;28;20367;-64
2023/01/10 03:01:30;;;;;;;13.45;3.78;;;12.20;93.00;;;;;;5055615;28;20281;-62
2023/01/10 03:03:55;;;;;;;14.20;3.00;;;12.20;92.80;;;;;;5055518;28;20055;-63
2023/01/10 03:06:33;;;;;;;18.75;3.90;;;12.00;92.90;;;;;;5054392;28;20477;-62
2023/01/10 03:09:08;;;;;;;14.77;3.67;;;12.10;92.90;;;;;;5055580;28;20021;-62
2023/01/10 03:11:41;;;;;;;15.18;3.15;;;11.80;93.10;;;;;;5053857;28;20041;-62
2023/01/10 03:14:22;;;;;;;14.85;3.10;;;11.80;93.00;;;;;;5055694;28;20021;-62
2023/01/10 03:16:58;;;;;;;12.38;2.90;;;11.80;93.30;;;;;;5055283;28;20360;-62
2023/01/10 03:19:29;;;;;;;12.48;4.20;;;11.80;93.10;;;;;;5055370;28;20021;-62
2023/01/10 03:21:58;;;;;;;17.02;3.55;;;11.90;93.20;;;;;;5055182;28;20033;-62
2023/01/10 03:24:30;;;;;;;14.35;4.05;;;12.10;93.10;;;;;;5055345;28;20025;-63
2023/01/10 03:27:35;;;;;;;14.95;3.03;;;12.20;93.00;;;;;;5056019;28;20021;-61
2023/01/10 03:30:25;;;;;;;18.80;3.20;;;12.30;92.80;;;;;;5072436;28;20020;-62
2023/01/10 03:32:53;;;;;;;18.15;3.78;;;12.30;93.00;;;;;;5075041;28;20126;-61
2023/01/10 03:35:21;;;;;;;17.75;4.50;;;12.20;93.00;;;;;;5074949;28;20027;-61
2023/01/10 03:37:55;;;;;;;12.65;3.97;;;12.00;92.70;;;;;;5073615;28;20160;-62
2023/01/10 03:40:42;;;;;;;18.48;3.33;;;12.20;93.00;;;;;;5074474;28;20477;-63
2023/01/10 03:46:07;;;;;;;19.33;4.13;;;12.20;93.00;;;;;;5075050;28;20035;-62
2023/01/10 03:48:37;;;;;;;17.63;3.75;;;11.80;92.90;;;;;;5074838;28;20013;-62
2023/01/10 03:51:04;;;;;;;22.95;4.80;;;12.00;93.10;;;;;;5075292;28;20062;-62
2023/01/10 03:53:32;;;;;;;15.85;4.35;;;11.90;93.00;;;;;;5074991;28;20473;-62
2023/01/10 03:55:59;;;;;;;14.65;3.28;;;11.90;92.90;;;;;;5074851;28;20504;-62
2023/01/10 03:58:27;;;;;;;22.88;4.22;;;11.90;93.20;;;;;;5075025;28;20020;-62
2023/01/10 04:00:52;;;;;;;16.30;4.10;;;11.70;93.20;;;;;;5074520;28;20036;-62
2023/01/10 04:03:18;;;;;;;16.13;3.50;;;11.80;92.90;;;;;;5074509;28;20040;-63
2023/01/10 04:05:43;;;;;;;18.50;4.40;;;11.90;92.90;;;;;;5074516;28;20561;-62
2023/01/10 04:08:09;;;;;;;18.52;4.32;;;12.00;92.90;;;;;;5073176;28;20031;-62
2023/01/10 04:10:36;;;;;;;18.17;3.72;;;11.90;92.80;;;;;;5074306;28;20118;-62
2023/01/10 04:13:02;;;;;;;15.23;3.80;;;11.90;92.70;;;;;;5074709;28;20033;-62
2023/01/10 04:15:28;;;;;;;15.68;4.15;;;12.10;93.00;;;;;;5074204;28;20029;-62
2023/01/10 04:17:55;;;;;;;12.15;3.05;;;12.20;93.20;;;;;;5074287;28;20107;-63
2023/01/10 04:20:21;;;;;;;11.07;3.00;;;12.20;93.30;;;;;;5074160;28;20066;-62
2023/01/10 04:22:50;;;;;;;22.42;4.55;;;12.40;93.50;;;;;;5073917;28;20446;-62
2023/01/10 04:25:15;;;;;;;14.57;2.95;;;12.30;93.00;;;;;;5074096;28;20028;-62
2023/01/10 04:27:41;;;;;;;16.30;3.95;;;12.10;92.90;;;;;;5074518;28;20090;-62
2023/01/10 04:30:08;;;;;;;17.90;3.67;;;12.20;93.40;;;;;;5073708;28;20032;-61
2023/01/10 04:32:33;;;;;;;20.10;3.70;;;12.20;93.00;;;;;;5073937;28;20025;-62
2023/01/10 04:34:59;;;;;;;17.80;3.72;;;12.30;93.10;;;;;;5073938;28;20028;-62
2023/01/10 04:37:24;;;;;;;15.73;4.07;;;12.20;92.90;;;;;;5073572;28;20024;-61
2023/01/10 04:39:50;;;;;;;12.95;3.70;;;12.40;93.50;;;;;;5073305;28;20461;-62
2023/01/10 04:42:16;;;;;;;13.82;3.40;;;12.30;93.30;;;;;;5073620;28;20086;-64
2023/01/10 04:44:42;;;;;;;15.73;3.58;;;12.40;93.50;;;;;;5073760;28;20531;-62
2023/01/10 04:47:07;;;;;;;16.98;3.83;;;12.10;93.10;;;;;;5073748;28;20021;-62
2023/01/10 04:49:33;;;;;;;17.98;4.47;;;11.90;93.00;;;;;;5073571;28;20036;-63
2023/01/10 04:51:58;;;;;;;16.30;3.88;;;11.70;92.80;;;;;;5073283;28;20031;-62
2023/01/10 04:54:24;;;;;;;19.27;4.30;;;11.50;93.10;;;;;;5073559;28;20081;-63
2023/01/10 04:56:50;;;;;;;17.15;4.50;;;11.50;93.00;;;;;;5073480;28;20056;-63
2023/01/10 04:59:15;;;;;;;19.65;4.25;;;11.60;93.20;;;;;;5073888;28;20069;-62
2023/01/10 05:01:41;;;;;;;22.50;4.00;;;11.40;92.80;;;;;;5073058;28;20504;-62
2023/01/10 05:04:08;;;;;;;21.55;4.82;;;11.30;93.10;;;;;;5073437;28;20035;-63
2023/01/10 05:06:33;;;;;;;18.50;4.18;;;11.30;93.10;;;;;;5072782;28;20477;-63
2023/01/10 05:08:59;;;;;;;14.40;3.67;;;11.20;93.10;;;;;;5073452;28;20097;-63
2023/01/10 05:11:24;;;;;;;18.30;3.58;;;11.50;94.90;;;;;;5072245;28;20020;-63
2023/01/10 05:13:50;;;;;;;15.35;3.75;;;11.70;94.90;;;;;;5073222;28;20470;-61
2023/01/10 05:16:16;;;;;;;16.63;3.78;;;12.00;95.10;;;;;;5072960;28;20486;-61
2023/01/10 05:18:41;;;;;;;18.15;3.42;;;11.90;94.50;;;;;;5072996;28;20040;-61
2023/01/10 05:21:10;;;;;;;13.98;3.13;;;11.80;94.50;;;;;;5072868;28;20056;-61
2023/01/10 05:23:36;;;;;;;16.55;3.65;;;11.70;94.70;;;;;;5073045;28;20127;-62
2023/01/10 05:26:22;;;;;;;15.50;4.47;;;11.80;94.90;;;;;;5073016;28;20391;-62
2023/01/10 05:28:47;;;;;;;14.32;3.55;;;11.80;94.40;;;;;;5073030;28;20021;-61
2023/01/10 05:31:16;;;;;;;18.30;3.40;;;11.70;94.70;;;;;;5072534;28;20035;-62
2023/01/10 05:33:46;;;;;;;15.95;3.55;;;11.50;94.70;;;;;;5072843;28;20024;-61
2023/01/10 05:36:13;;;;;;;13.05;3.42;;;11.50;94.90;;;;;;5072801;28;20028;-62
2023/01/10 05:38:38;;;;;;;14.07;4.05;;;11.70;95.40;;;;;;5072860;28;20059;-61
2023/01/10 05:41:04;;;;;;;14.43;3.58;;;11.80;95.10;;;;;;5072870;28;20404;-62
2023/01/10 05:43:30;;;;;;;15.38;3.40;;;12.00;94.70;;;;;;5072428;28;20086;-61
2023/01/10 05:45:56;;;;;;;15.43;4.10;;;11.90;94.60;;;;;;5072750;28;20046;-61
2023/01/10 05:48:22;;;;;;;18.05;3.55;;;11.90;94.60;;;;;;5072737;28;20028;-63
2023/01/10 05:50:49;;;;;;;13.02;3.95;;;11.90;94.40;;;;;;5072520;28;20050;-61
2023/01/10 05:53:14;;;;;;;14.10;3.83;;;11.90;94.90;;;;;;5072562;28;20036;-61
2023/01/10 05:55:40;;;;;;;15.35;3.45;;;11.90;94.90;;;;;;5072749;28;20085;-63
2023/01/10 05:58:06;;;;;;;15.65;3.42;;;12.10;95.00;;;;;;5072491;28;20028;-62
2023/01/10 06:00:31;;;;;;;13.75;3.25;;;12.10;94.80;;;;;;5068754;28;20100;-62
2023/01/10 06:02:57;;;;;;;15.27;3.08;;;12.10;94.50;;;;;;5053068;28;20029;-63
2023/01/10 06:05:23;;;;;;;13.98;3.60;;;12.20;94.70;;;;;;5050896;28;20375;-61
2023/01/10 06:07:49;;;;;;;14.70;3.33;;;12.10;94.70;;;;;;5050694;28;20222;-65
2023/01/10 06:10:16;;;;;;;12.60;3.30;;;12.10;94.70;;;;;;5051265;28;20037;-61
2023/01/10 06:12:42;;;;;;;20.00;3.80;;;12.10;94.60;;;;;;5052309;28;20385;-62
2023/01/10 06:15:09;;;;;;;12.50;3.15;;;12.20;94.80;;;;;;5052417;28;20024;-63
2023/01/10 06:17:34;;;;;;;18.77;4.07;;;12.20;94.30;;;;;;5052307;28;20021;-61
2023/01/10 06:20:00;;;;;;;12.20;3.38;;;12.10;94.00;;;;;;5052131;28;20455;-61
2023/01/10 06:22:27;;;;;;;12.75;3.35;;;12.00;94.10;;;;;;5052449;28;20071;-63
2023/01/10 06:24:53;;;;;;;27.38;5.68;;;11.80;94.00;;;;;;5052442;28;20037;-63
2023/01/10 06:27:19;;;;;;;19.08;5.22;;;11.80;94.50;;;;;;5053471;28;20104;-61
2023/01/10 06:29:44;;;;;;;17.30;4.43;;;11.80;93.80;;;;;;5062753;28;20120;-62
2023/01/10 06:32:10;;;;;;;19.38;5.07;;;11.70;93.40;;;;;;5061137;28;20075;-62
2023/01/10 06:34:36;;;;;;;21.58;4.55;;;11.20;93.30;;;;;;5058062;28;20045;-62
2023/01/10 06:37:01;;;;;;;15.95;4.72;;;11.50;93.40;;;;;;5063488;28;20458;-66
2023/01/10 06:39:27;;;;;;;20.40;4.40;;;11.30;93.20;;;;;;5055820;28;20135;-62
2023/01/10 06:41:52;;;;;;;26.45;5.65;;;11.20;93.20;;;;;;5065229;28;20417;-63
2023/01/10 06:44:18;;;;;;;20.40;5.50;;;11.20;92.40;;;;;;5069112;28;20466;-61
2023/01/10 06:46:44;;;;;;;13.65;3.50;;;11.00;92.40;;;;;;5063985;28;20020;-64
2023/01/10 06:49:09;;;;;;;16.73;4.13;;;11.40;94.40;;;;;;5062381;28;20115;-64
2023/01/10 06:51:35;;;;;;;16.48;4.18;;;11.80;94.30;;;;;;5070888;28;20100;-62
2023/01/10 06:54:00;;;;;;;19.40;5.03;;;12.10;93.90;;;;;;5065464;28;20374;-63
2023/01/10 06:56:26;;;;;;;16.00;5.55;;;12.20;93.50;;;;;;5068120;28;20028;-66
2023/01/10 06:58:51;;;;;;;29.17;6.65;;;12.40;93.20;;;;;;5068655;28;20100;-65
2023/01/10 07:01:19;;;;;;;16.58;6.05;;;12.30;92.70;;;;;;5065457;28;20029;-64
2023/01/10 07:03:45;;;;;;;20.65;5.53;;;12.00;93.00;;;;;;5071972;28;20041;-62
2023/01/10 07:06:11;;;;;;;25.20;5.70;;;11.40;92.00;;;;;;5073110;28;20020;-62
2023/01/10 07:08:39;;;;;;;21.42;4.75;;;11.00;92.00;;;;;;5065235;28;20473;-63
2023/01/10 07:11:06;;;;;;;21.23;5.00;;;10.80;92.40;;;;;;5067807;28;20035;-62
2023/01/10 07:13:31;;;;;;;19.55;4.97;;;10.90;92.50;;;;;;5072608;28;20413;-63
2023/01/10 07:16:05;;;;;;;20.35;5.95;;;10.80;92.80;;;;;;5074958;28;20480;-62
2023/01/10 07:18:32;;;;;;;17.58;4.50;;;11.10;93.50;;;;;;5068060;28;20028;-63
2023/01/10 07:20:57;;;;;;;21.15;4.45;;;11.30;93.50;;;;;;5073925;28;20012;-63
2023/01/10 07:23:23;;;;;;;19.05;5.20;;;11.20;93.50;;;;;;5073919;28;20055;-62
2023/01/10 07:25:49;;;;;;;22.70;5.18;;;11.00;93.50;;;;;;5075384;28;20025;-63
2023/01/10 07:28:14;;;;;;;17.52;4.75;;;10.80;93.40;;;;;;5072376;28;20469;-63
2023/01/10 07:30:40;;;;;;;20.30;5.00;;;10.90;93.80;;;;;;5074113;28;20032;-63
2023/01/10 07:33:06;;;;;;;22.67;5.50;;;10.90;93.40;;;;;;5074992;28;20020;-63
2023/01/10 07:35:32;;;;;;;27.20;5.57;;;10.70;93.60;;;;;;5075055;28;20036;-64
2023/01/10 07:37:58;;;;;;;17.70;5.07;;;10.70;93.50;;;;;;5074754;28;20024;-62
2023/01/10 07:40:25;;;;;;;21.60;4.78;;;11.00;93.70;;;;;;5074997;28;20052;-62
2023/01/10 07:42:56;;;;;;;18.88;4.10;;;11.00;93.80;;;;;;5075242;28;20503;-62
2023/01/10 07:45:22;;;;;;;16.65;4.80;;;11.10;94.10;;;;;;5074828;28;20025;-61
2023/01/10 07:47:47;;;;;;;18.38;4.88;;;10.90;93.80;;;;;;5075126;28;20107;-62
2023/01/10 07:50:13;;;;;;;18.73;4.30;;;10.80;93.80;;;;;;5074912;28;20514;-63
2023/01/10 07:52:39;;;;;;;21.65;4.45;;;10.80;93.80;;;;;;5075039;28;20051;-63
2023/01/10 07:55:05;;;;;;;17.40;4.30;;;10.80;94.00;;;;;;5074670;28;20366;-63
2023/01/10 07:57:30;;;;;;;21.65;4.70;;;10.50;93.90;;;;;;5074787;28;20040;-63
2023/01/10 07:59:56;;;;;;;18.33;5.22;;;10.50;94.20;;;;;;5074333;28;20017;-63
2023/01/10 08:02:22;;;;;;;20.45;4.60;;;10.70;94.00;;;;;;5074541;28;20062;-66
2023/01/10 08:04:47;;;;;;;19.15;4.63;;;10.80;93.90;;;;;;5074632;28;20021;-63
2023/01/10 08:07:13;;;;;;;19.25;4.40;;;10.80;93.90;;;;;;5074680;28;20082;-65
2023/01/10 08:09:38;;;;;;;14.23;4.75;;;11.00;94.10;;;;;;5074481;28;20462;-66
2023/01/10 08:12:04;;;;;;;18.88;4.82;;;11.00;94.10;;;;;;5074540;28;20028;-66
2023/01/10 08:14:29;;;;;;;15.20;4.13;;;11.00;93.70;;;;;;5072987;28;20063;-65
2023/01/10 08:16:55;;;;;;;16.35;4.43;;;10.80;93.60;;;;;;5074264;28;20024;-63
2023/01/10 08:19:20;;;;;;;18.10;4.47;;;10.90;94.20;;;;;;5074344;28;20074;-64
2023/01/10 08:21:46;;;;;;;16.38;5.22;;;10.90;94.10;;;;;;5074036;28;20028;-66
2023/01/10 08:24:11;;;;;;;18.42;4.47;;;11.00;93.80;;;;;;5074104;28;20040;-66
2023/01/10 08:26:37;;;;;;;12.20;3.53;;;11.00;94.00;;;;;;5074084;28;20021;-64
2023/01/10 08:29:02;;;;;;;16.90;4.00;;;11.00;94.00;;;;;;5072676;28;20017;-66
2023/01/10 08:31:28;;;;;;;21.55;4.03;;;11.10;94.20;;;;;;5073713;28;20081;-63
2023/01/10 08:33:53;;;;;;;17.88;4.30;;;11.00;94.10;;;;;;5074066;28;20043;-66
2023/01/10 08:36:21;;;;;;;16.90;4.15;;;11.00;94.30;;;;;;5073862;28;20024;-66
2023/01/10 08:38:46;;;;;;;14.15;3.97;;;10.90;94.00;;;;;;5073848;28;20020;-67
2023/01/10 08:41:12;;;;;;;19.65;4.05;;;10.90;94.10;;;;;;5072560;28;20401;-66
2023/01/10 08:43:39;;;;;;;13.07;3.90;;;11.20;94.50;;;;;;5073752;28;20056;-63
2023/01/10 08:46:05;;;;;;;14.15;3.85;;;11.20;94.60;;;;;;5073658;28;20025;-63
2023/01/10 08:48:31;;;;;;;15.15;4.35;;;11.10;94.30;;;;;;5073643;28;20025;-65
2023/01/10 08:50:56;;;;;;;15.48;3.80;;;11.20;94.30;;;;;;5073571;28;20096;-64
2023/01/10 08:53:22;;;;;;;13.98;3.50;;;11.40;94.70;;;;;;5073914;28;20032;-63
2023/01/10 08:55:48;;;;;;;15.07;3.60;;;11.40;94.60;;;;;;5073791;28;20481;-66
2023/01/10 08:58:14;;;;;;;13.48;3.83;;;11.40;94.70;;;;;;5072200;28;20035;-63
2023/01/10 09:00:40;;;;;;;12.75;3.70;;;11.30;94.30;;;;;;5073421;28;20029;-63
2023/01/10 09:03:07;;;;;;;13.45;4.60;;;11.30;94.70;;;;;;5073307;28;20078;-63
2023/01/10 09:05:33;;;;;;;19.23;5.88;;;11.30;94.60;;;;;;5073535;28;20374;-63
2023/01/10 09:08:00;;;;;;;14.52;4.32;;;11.20;94.60;;;;;;5073298;28;20020;-62
2023/01/10 09:10:26;;;;;;;18.60;4.18;;;11.00;94.30;;;;;;5073251;28;20033;-62
2023/01/10 09:12:55;;;;;;;15.20;4.50;;;11.20;94.70;;;;;;5072981;28;20028;-62
2023/01/10 09:15:22;;;;;;;18.05;4.78;;;11.20;94.50;;;;;;5073081;28;20091;-62
2023/01/10 09:17:50;;;;;;;16.20;4.28;;;11.10;94.20;;;;;;5072987;28;20495;-62
2023/01/10 09:20:16;;;;;;;14.27;3.80;;;11.20;94.30;;;;;;5072870;28;20027;-64
2023/01/10 09:22:41;;;;;;;14.02;3.95;;;11.30;94.80;;;;;;5072813;28;20040;-63
2023/01/10 09:25:07;;;;;;;17.35;4.00;;;11.20;94.70;;;;;;5072721;28;20029;-62
2023/01/10 09:27:33;;;;;;;16.50;3.88;;;11.00;94.30;;;;;;5072580;28;20040;-62
2023/01/10 09:29:58;;;;;;;13.57;3.67;;;11.00;94.40;;;;;;5073248;28;20013;-62
2023/01/10 09:32:24;;;;;;;13.38;4.20;;;11.20;94.60;;;;;;5073150;28;20423;-62
2023/01/10 09:34:50;;;;;;;14.02;3.88;;;11.10;94.30;;;;;;5072882;28;20041;-62
2023/01/10 09:37:16;;;;;;;16.77;4.00;;;11.00;94.60;;;;;;5072595;28;20025;-62
2023/01/10 09:39:42;;;;;;;17.35;4.32;;;11.20;94.90;;;;;;5073337;28;20028;-63
2023/01/10 09:42:07;;;;;;;13.65;3.80;;;11.10;94.60;;;;;;5072297;28;20020;-63
2023/01/10 09:44:57;;;;;;;11.32;2.92;;;11.10;95.10;;;;;;5072747;28;20040;-62
2023/01/10 09:47:46;;;;;;;14.30;4.18;;;11.30;95.10;;;;;;5072970;28;20078;-63
2023/01/10 09:50:38;;;;;;;15.35;3.53;;;11.10;94.50;;;;;;5072751;28;20039;-63
2023/01/10 09:53:14;;;;;;;12.48;3.85;;;11.30;94.80;;;;;;5072757;28;20062;-65
2023/01/10 09:55:41;;;;;;;14.80;3.85;;;11.10;94.60;;;;;;5072502;28;20032;-63
2023/01/10 09:58:15;;;;;;;14.90;4.32;;;11.20;94.80;;;;;;5072301;28;20382;-63
2023/01/10 10:01:18;;;;;;;11.82;3.50;;;11.30;94.80;;;;;;5072695;28;20469;-64
2023/01/10 10:04:01;;;;;;;;;;;11.40;94.90;;;;;;5062918;28;20041;-64
2023/01/10 10:06:27;;;;;;;13.05;3.67;;;11.20;94.90;;;;;;5072587;28;19908;-67
2023/01/10 10:08:53;;;;;;;15.27;4.50;;;11.30;95.00;;;;;;5071282;28;20409;-63
2023/01/10 10:11:24;;;;;;;11.85;3.55;;;11.20;95.00;;;;;;5072384;28;20032;-64
2023/01/10 10:14:12;;;;;;;17.38;4.78;;;11.10;94.90;;;;;;5072629;28;20028;-67
2023/01/10 10:17:05;;;;;;;17.20;4.40;;;11.00;94.90;;;;;;5072241;28;20035;-66
2023/01/10 10:19:33;;;;;;;;;;;11.20;95.00;;;;;;5072751;28;20031;-65
2023/01/10 10:22:11;;;;;;;12.18;3.67;;;11.20;94.70;;;;;;5072557;28;19948;-65
2023/01/10 10:25:03;;;;;;;14.32;3.38;;;11.20;94.90;;;;;;5072396;28;20028;-64
2023/01/10 10:27:39;;;;;;;11.10;2.75;;;11.70;89.60;;;;;;5072247;28;20031;-63
2023/01/10 10:30:42;;;;;;;14.77;3.63;;;12.10;86.30;;;;;;5072318;28;20033;-65
2023/01/10 10:33:22;;;;;;;8.43;2.53;;;12.30;86.00;;;;;;5070713;28;20166;-65
2023/01/10 10:35:55;;;;;;;7.20;2.55;;;12.30;87.60;;;;;;5072345;28;20025;-64
2023/01/10 10:38:30;;;;;;;9.45;3.00;;;12.40;88.40;;;;;;5075102;28;20020;-66
2023/01/10 10:40:58;;;;;;;10.52;3.58;;;12.40;88.90;;;;;;5076209;28;20040;-66
2023/01/10 10:43:30;;;;;;;8.30;3.00;;;12.50;88.40;;;;;;5075932;28;20056;-66
2023/01/10 10:45:59;;;;;;;;;;;12.50;88.50;;;;;;5076765;28;20017;-66
2023/01/10 10:48:35;;;;;;;10.40;3.08;;;12.50;88.50;;;;;;5076007;28;19904;-66
2023/01/10 10:51:32;;;;;;;10.98;2.90;;;12.60;89.30;;;;;;5076091;28;20485;-65
2023/01/10 10:53:58;;;;;;;12.00;3.17;;;12.50;89.00;;;;;;5054302;28;20052;-67
2023/01/10 10:56:26;;;;;;;8.52;2.92;;;12.50;89.60;;;;;;5075977;28;20037;-66
2023/01/10 10:58:54;;;;;;;9.40;3.17;;;12.60;90.00;;;;;;5075906;28;20027;-66
2023/01/10 11:01:21;;;;;;;9.05;2.92;;;12.60;90.50;;;;;;5075809;28;20040;-66
2023/01/10 11:04:08;;;;;;;9.93;3.00;;;12.60;90.50;;;;;;5075546;28;20039;-63
2023/01/10 11:06:35;;;;;;;9.65;2.47;;;12.60;90.10;;;;;;5075789;28;20032;-64
2023/01/10 11:09:03;;;;;;;8.10;2.85;;;12.60;90.60;;;;;;5075472;28;20483;-66
2023/01/10 11:11:33;;;;;;;8.40;2.63;;;12.70;90.30;;;;;;5075580;28;20474;-64
2023/01/10 11:14:07;;;;;;;10.32;3.17;;;12.70;90.40;;;;;;5075559;28;20033;-65
2023/01/10 11:16:37;;;;;;;9.00;2.78;;;12.60;90.70;;;;;;5075627;28;20023;-66
2023/01/10 11:19:22;;;;;;;8.68;3.00;;;12.60;90.60;;;;;;5057611;28;20025;-63
2023/01/10 11:21:51;;;;;;;8.35;2.83;;;12.70;90.50;;;;;;5075598;28;20381;-66
2023/01/10 11:24:27;;;;;;;10.65;2.85;;;12.60;90.70;;;;;;5073612;28;20420;-65
2023/01/10 11:26:55;;;;;;;9.80;2.70;;;12.60;91.00;;;;;;5075535;28;20021;-66
2023/01/10 11:29:29;;;;;;;10.90;2.90;;;12.70;91.20;;;;;;5073799;28;20017;-66
2023/01/10 11:31:56;;;;;;;9.15;2.78;;;12.70;91.20;;;;;;5074301;28;20511;-64
2023/01/10 11:34:28;;;;;;;12.77;2.88;;;12.70;91.30;;;;;;5074004;28;20028;-63
2023/01/10 11:37:17;;;;;;;8.80;2.90;;;12.70;91.40;;;;;;5073999;28;20032;-64
2023/01/10 11:39:43;;;;;;;11.13;3.30;;;12.80;91.30;;;;;;5073050;28;20469;-63
2023/01/10 11:42:37;;;;;;;7.63;2.47;;;12.80;91.30;;;;;;5073231;28;20025;-63
2023/01/10 11:45:18;;;;;;;11.95;3.17;;;12.80;91.30;;;;;;5068482;28;20071;-63
2023/01/10 11:47:58;;;;;;;8.45;2.80;;;12.80;91.40;;;;;;5073676;28;20028;-63
2023/01/10 11:50:31;;;;;;;12.75;3.08;;;12.80;91.50;;;;;;5073644;28;20466;-63
2023/01/10 11:52:57;;;;;;;11.63;3.15;;;12.80;91.60;;;;;;5073035;28;20032;-63
2023/01/10 11:55:26;;;;;;;10.68;3.05;;;12.80;91.60;;;;;;5073575;28;20078;-62
2023/01/10 11:58:12;;;;;;;10.73;3.03;;;12.80;91.60;;;;;;5073650;28;20033;-64
2023/01/10 12:00:38;;;;;;;12.68;3.20;;;12.90;91.60;;;;;;5073360;28;20039;-63
2023/01/10 12:03:22;;;;;;;12.98;3.25;;;12.90;91.40;;;;;;5073106;28;20473;-63
2023/01/10 12:05:59;;;;;;;9.00;3.03;;;12.90;91.50;;;;;;5072823;28;20454;-64
2023/01/10 12:08:31;;;;;;;13.85;3.85;;;12.90;91.60;;;;;;5073010;28;20074;-62
2023/01/10 12:11:26;;;;;;;17.23;3.65;;;12.90;91.80;;;;;;5073408;28;20420;-63
2023/01/10 12:13:56;;;;;;;13.50;3.15;;;12.90;91.80;;;;;;5071051;28;20123;-64
2023/01/10 12:16:24;;;;;;;11.45;3.63;;;12.90;91.60;;;;;;5073162;28;20020;-64
2023/01/10 12:18:52;;;;;;;11.80;3.15;;;12.90;91.50;;;;;;5072887;28;20027;-66
2023/01/10 12:21:33;;;;;;;14.48;3.65;;;13.00;91.60;;;;;;5072958;28;20082;-63
2023/01/10 12:24:02;;;;;;;14.07;3.42;;;13.00;91.70;;;;;;5073221;28;20040;-64
2023/01/10 12:26:31;;;;;;;9.93;3.15;;;13.00;91.50;;;;;;5073290;28;20016;-64
2023/01/10 12:29:02;;;;;;;11.43;3.17;;;13.00;91.70;;;;;;5072483;28;20115;-64
2023/01/10 12:31:30;;;;;;;15.68;4.45;;;13.10;91.60;;;;;;5036980;28;1044715;-63
2023/01/10 12:34:01;;;;;;;11.55;3.47;;;13.10;91.60;;;;;;5069054;28;20367;-63
2023/01/10 12:36:48;;;;;;;11.00;2.97;;;13.10;91.60;;;;;;5068916;28;20016;-65
2023/01/10 12:39:22;;;;;;;10.90;2.80;;;13.10;91.70;;;;;;5073270;28;20028;-64
2023/01/10 12:44:59;;;;;;;16.38;3.60;;;13.10;91.80;;;;;;5072024;28;20047;-65
2023/01/10 12:47:49;;;;;;;11.18;3.55;;;13.10;91.90;;;;;;5073267;28;20021;-66
2023/01/10 12:50:24;;;;;;;8.80;3.15;;;13.10;92.00;;;;;;5073580;28;20311;-64
2023/01/10 12:52:59;;;;;;;12.45;3.70;;;13.20;91.90;;;;;;5073911;28;20021;-66
2023/01/10 12:55:34;;;;;;;12.45;3.70;;;13.20;91.90;;;;;;5072082;28;20435;-65
2023/01/10 12:58:02;;;;;;;14.15;3.72;;;13.20;91.90;;;;;;5073482;28;20067;-64
2023/01/10 13:00:45;;;;;;;10.75;3.88;;;13.20;92.00;;;;;;5072813;28;20035;-64
2023/01/10 13:03:17;;;;;;;13.65;3.63;;;13.20;92.00;;;;;;5073028;28;20033;-64
2023/01/10 13:05:47;;;;;;;13.60;3.40;;;13.20;92.10;;;;;;5072568;28;20054;-63